createdAt,value
2018-12-20T00:00:32.171Z,3.91
2018-12-20T00:01:32.335Z,3.87
2018-12-20T00:02:32.005Z,3.96
2018-12-20T00:03:32.143Z,3.91
2018-12-20T00:04:32.114Z,3.84
2018-12-20T00:05:32.022Z,3.84
2018-12-20T00:06:32.046Z,3.80
2018-12-20T00:07:32.217Z,3.87
2018-12-20T00:08:31.940Z,3.87
2018-12-20T00:09:31.935Z,3.87
2018-12-20T00:10:32.028Z,3.86
2018-12-20T00:11:31.910Z,3.87
2018-12-20T00:12:31.917Z,3.87
2018-12-20T00:13:32.015Z,3.94
2018-12-20T00:14:31.877Z,3.87
2018-12-20T00:15:31.871Z,3.84
2018-12-20T00:16:31.954Z,3.84
2018-12-20T00:17:31.871Z,3.92
2018-12-20T00:18:31.939Z,3.77
2018-12-20T00:19:32.019Z,3.78
2018-12-20T00:20:31.857Z,3.80
2018-12-20T00:21:31.820Z,3.76
2018-12-20T00:22:31.804Z,3.92
2018-12-20T00:23:31.823Z,3.88
2018-12-20T00:24:31.772Z,3.87
2018-12-20T00:25:31.898Z,3.80
2018-12-20T00:26:31.799Z,3.87
2018-12-20T00:27:31.741Z,3.92
2018-12-20T00:28:31.807Z,3.81
2018-12-20T00:29:31.930Z,3.87
2018-12-20T00:30:31.739Z,3.76
2018-12-20T00:31:31.926Z,3.77
2018-12-20T00:32:31.905Z,3.78
2018-12-20T00:33:31.727Z,3.70
2018-12-20T00:34:31.668Z,3.86
2018-12-20T00:35:32.148Z,3.80
2018-12-20T00:36:31.702Z,3.81
2018-12-20T00:37:32.071Z,3.76
2018-12-20T00:38:31.708Z,3.74
2018-12-20T00:39:31.634Z,3.73
2018-12-20T00:40:31.954Z,3.78
2018-12-20T00:41:31.589Z,3.73
2018-12-20T00:42:31.649Z,3.68
2018-12-20T00:43:31.737Z,3.74
2018-12-20T00:44:37.350Z,3.70
2018-12-20T00:45:33.036Z,3.73
2018-12-20T00:46:31.521Z,3.74
2018-12-20T00:47:31.650Z,3.73
2018-12-20T00:48:31.693Z,3.74
2018-12-20T00:49:31.629Z,3.76
2018-12-20T00:50:31.522Z,3.66
2018-12-20T00:51:31.636Z,3.69
2018-12-20T00:52:31.547Z,3.69
2018-12-20T00:53:32.924Z,3.73
2018-12-20T00:54:31.668Z,3.74
2018-12-20T00:55:31.468Z,3.74
2018-12-20T00:56:31.441Z,3.70
2018-12-20T00:57:31.718Z,3.70
2018-12-20T00:58:31.597Z,3.69
2018-12-20T00:59:31.414Z,3.63
2018-12-20T01:00:31.391Z,3.68
2018-12-20T01:01:31.563Z,3.70
2018-12-20T01:02:31.481Z,3.76
2018-12-20T01:03:32.230Z,3.68
2018-12-20T01:04:31.612Z,3.68
2018-12-20T01:05:31.326Z,3.73
2018-12-20T01:06:31.384Z,3.66
2018-12-20T01:07:31.361Z,3.68
2018-12-20T01:08:31.298Z,3.68
2018-12-20T01:09:31.808Z,3.69
2018-12-20T01:10:31.435Z,3.70
2018-12-20T01:11:31.299Z,3.69
2018-12-20T01:12:31.508Z,3.70
2018-12-20T01:13:31.249Z,3.76
2018-12-20T01:14:31.568Z,3.70
2018-12-20T01:15:31.267Z,3.74
2018-12-20T01:16:31.207Z,3.77
2018-12-20T01:17:31.202Z,3.76
2018-12-20T01:18:31.179Z,3.73
2018-12-20T01:19:31.186Z,3.76
2018-12-20T01:20:31.470Z,3.80
2018-12-20T01:21:31.233Z,3.78
2018-12-20T01:22:31.152Z,3.74
2018-12-20T01:23:31.230Z,3.76
2018-12-20T01:24:31.285Z,3.76
2018-12-20T01:25:31.124Z,3.68
2018-12-20T01:26:31.490Z,3.73
2018-12-20T01:27:31.082Z,3.73
2018-12-20T01:28:31.313Z,3.70
2018-12-20T01:29:31.381Z,3.74
2018-12-20T01:30:31.058Z,3.76
2018-12-20T01:31:31.039Z,3.74
2018-12-20T01:32:31.253Z,3.74
2018-12-20T01:33:31.019Z,3.77
2018-12-20T01:34:31.249Z,3.73
2018-12-20T01:35:31.015Z,3.74
2018-12-20T01:36:30.985Z,3.77
2018-12-20T01:37:31.583Z,3.77
2018-12-20T01:38:30.977Z,3.77
2018-12-20T01:39:30.977Z,3.74
2018-12-20T01:40:30.999Z,3.80
2018-12-20T01:41:31.061Z,3.73
2018-12-20T01:42:30.930Z,3.78
2018-12-20T01:43:31.320Z,3.88
2018-12-20T01:44:31.066Z,3.78
2018-12-20T01:45:31.000Z,3.86
2018-12-20T01:46:30.919Z,3.88
2018-12-20T01:47:31.044Z,3.87
2018-12-20T01:48:30.890Z,3.80
2018-12-20T01:49:30.985Z,3.86
2018-12-20T01:50:31.009Z,3.80
2018-12-20T01:51:30.985Z,3.86
2018-12-20T01:52:30.890Z,3.74
2018-12-20T01:53:30.954Z,3.84
2018-12-20T01:54:30.823Z,3.84
2018-12-20T01:55:31.633Z,3.70
2018-12-20T01:56:30.846Z,3.81
2018-12-20T01:57:30.909Z,3.84
2018-12-20T01:58:30.975Z,3.76
2018-12-20T01:59:30.940Z,3.78
2018-12-20T02:00:30.961Z,3.70
2018-12-20T02:01:30.800Z,3.69
2018-12-20T02:02:30.723Z,3.70
2018-12-20T02:03:30.713Z,3.69
2018-12-20T02:04:31.818Z,3.78
2018-12-20T02:05:30.789Z,3.77
2018-12-20T02:06:30.736Z,3.66
2018-12-20T02:07:30.841Z,3.74
2018-12-20T02:08:30.880Z,3.74
2018-12-20T02:09:30.738Z,3.74
2018-12-20T02:10:31.308Z,3.70
2018-12-20T02:11:30.756Z,3.70
2018-12-20T02:12:30.910Z,3.80
2018-12-20T02:13:30.771Z,3.80
2018-12-20T02:14:30.838Z,3.74
2018-12-20T02:15:31.123Z,3.77
2018-12-20T02:16:32.575Z,3.80
2018-12-20T02:17:30.576Z,3.86
2018-12-20T02:18:30.712Z,3.78
2018-12-20T02:19:30.703Z,3.70
2018-12-20T02:20:30.520Z,3.81
2018-12-20T02:21:30.620Z,3.73
2018-12-20T02:22:30.915Z,3.81
2018-12-20T02:23:30.530Z,3.81
2018-12-20T02:24:30.544Z,3.81
2018-12-20T02:25:30.655Z,3.86
2018-12-20T02:26:30.568Z,3.81
2018-12-20T02:27:30.549Z,3.80
2018-12-20T02:28:30.753Z,3.69
2018-12-20T02:29:30.426Z,3.80
2018-12-20T02:30:30.482Z,3.80
2018-12-20T02:31:30.393Z,3.76
2018-12-20T02:32:30.706Z,3.78
2018-12-20T02:33:30.379Z,3.69
2018-12-20T02:34:30.937Z,3.77
2018-12-20T02:35:30.369Z,3.73
2018-12-20T02:36:31.359Z,3.77
2018-12-20T02:37:31.089Z,3.74
2018-12-20T02:38:30.463Z,3.69
2018-12-20T02:39:30.484Z,3.73
2018-12-20T02:40:30.303Z,3.77
2018-12-20T02:41:30.316Z,3.66
2018-12-20T02:42:30.540Z,3.68
2018-12-20T02:43:30.281Z,3.69
2018-12-20T02:44:30.316Z,3.68
2018-12-20T02:45:30.266Z,3.68
2018-12-20T02:46:30.434Z,3.73
2018-12-20T02:47:30.547Z,3.70
2018-12-20T02:48:30.525Z,3.73
2018-12-20T02:49:30.628Z,3.68
2018-12-20T02:50:30.305Z,3.65
2018-12-20T02:51:30.352Z,3.65
2018-12-20T02:52:30.207Z,3.66
2018-12-20T02:53:30.255Z,3.62
2018-12-20T02:54:30.423Z,3.68
2018-12-20T02:55:30.150Z,3.60
2018-12-20T02:56:30.133Z,3.63
2018-12-20T02:57:30.118Z,3.59
2018-12-20T02:58:31.057Z,3.63
2018-12-20T02:59:30.094Z,3.60
2018-12-20T03:00:30.466Z,3.63
2018-12-20T03:01:30.091Z,3.66
2018-12-20T03:02:30.250Z,3.70
2018-12-20T03:03:30.065Z,3.60
2018-12-20T03:04:30.160Z,3.63
2018-12-20T03:05:30.050Z,3.58
2018-12-20T03:06:30.548Z,3.59
2018-12-20T03:07:30.037Z,3.58
2018-12-20T03:08:30.059Z,3.53
2018-12-20T03:09:30.010Z,3.50
2018-12-20T03:10:29.978Z,3.59
2018-12-20T03:11:29.968Z,3.55
2018-12-20T03:12:30.340Z,3.56
2018-12-20T03:13:30.201Z,3.55
2018-12-20T03:14:29.942Z,3.56
2018-12-20T03:15:30.240Z,3.68
2018-12-20T03:16:30.009Z,3.65
2018-12-20T03:17:29.912Z,3.56
2018-12-20T03:18:30.043Z,3.60
2018-12-20T03:19:31.085Z,3.53
2018-12-20T03:20:29.888Z,3.51
2018-12-20T03:21:30.300Z,3.55
2018-12-20T03:22:30.414Z,3.59
2018-12-20T03:23:30.051Z,3.55
2018-12-20T03:24:29.925Z,3.62
2018-12-20T03:25:29.844Z,3.55
2018-12-20T03:26:29.807Z,3.56
2018-12-20T03:27:30.473Z,3.62
2018-12-20T03:28:30.027Z,3.53
2018-12-20T03:29:29.801Z,3.58
2018-12-20T03:30:29.764Z,3.56
2018-12-20T03:31:29.979Z,3.59
2018-12-20T03:32:29.764Z,3.58
2018-12-20T03:33:31.157Z,3.58
2018-12-20T03:34:29.858Z,3.56
2018-12-20T03:35:29.911Z,3.56
2018-12-20T03:36:29.700Z,3.69
2018-12-20T03:37:29.695Z,3.62
2018-12-20T03:38:29.790Z,3.56
2018-12-20T03:39:30.005Z,3.55
2018-12-20T03:40:30.822Z,3.55
2018-12-20T03:41:29.650Z,3.47
2018-12-20T03:42:29.645Z,3.50
2018-12-20T03:43:29.666Z,3.53
2018-12-20T03:44:29.683Z,3.50
2018-12-20T03:45:30.093Z,3.55
2018-12-20T03:46:29.638Z,3.58
2018-12-20T03:47:29.628Z,3.51
2018-12-20T03:48:29.573Z,3.45
2018-12-20T03:49:29.618Z,3.51
2018-12-20T03:50:29.568Z,3.47
2018-12-20T03:51:29.778Z,3.56
2018-12-20T03:52:29.626Z,3.59
2018-12-20T03:53:29.529Z,3.47
2018-12-20T03:54:29.523Z,3.51
2018-12-20T03:55:29.674Z,3.51
2018-12-20T03:56:29.493Z,3.53
2018-12-20T03:57:29.904Z,3.53
2018-12-20T03:58:29.600Z,3.53
2018-12-20T03:59:29.453Z,3.47
2018-12-20T04:00:29.683Z,3.53
2018-12-20T04:01:31.638Z,3.65
2018-12-20T04:02:29.581Z,3.56
2018-12-20T04:03:29.659Z,3.59
2018-12-20T04:04:29.925Z,3.60
2018-12-20T04:05:29.543Z,3.55
2018-12-20T04:06:29.448Z,3.58
2018-12-20T04:07:29.664Z,3.56
2018-12-20T04:08:29.370Z,3.62
2018-12-20T04:09:29.373Z,3.59
2018-12-20T04:10:29.591Z,3.56
2018-12-20T04:11:29.362Z,3.55
2018-12-20T04:12:29.410Z,3.55
2018-12-20T04:13:29.306Z,3.59
2018-12-20T04:14:29.511Z,3.56
2018-12-20T04:15:37.639Z,3.53
2018-12-20T04:16:30.699Z,3.59
2018-12-20T04:17:29.274Z,3.56
2018-12-20T04:18:29.456Z,3.66
2018-12-20T04:19:29.310Z,3.51
2018-12-20T04:20:29.491Z,3.48
2018-12-20T04:21:29.347Z,3.45
2018-12-20T04:22:31.765Z,3.47
2018-12-20T04:23:29.323Z,3.47
2018-12-20T04:24:29.266Z,3.45
2018-12-20T04:25:29.354Z,3.51
2018-12-20T04:26:29.176Z,3.50
2018-12-20T04:27:29.536Z,3.56
2018-12-20T04:28:36.863Z,3.47
2018-12-20T04:29:29.354Z,3.50
2018-12-20T04:30:29.306Z,3.50
2018-12-20T04:31:29.362Z,3.53
2018-12-20T04:32:29.407Z,3.53
2018-12-20T04:33:29.140Z,3.50
2018-12-20T04:34:29.501Z,3.51
2018-12-20T04:35:29.072Z,3.41
2018-12-20T04:36:29.176Z,3.44
2018-12-20T04:37:29.052Z,3.42
2018-12-20T04:38:29.286Z,3.45
2018-12-20T04:39:29.088Z,3.51
2018-12-20T04:40:29.189Z,3.42
2018-12-20T04:41:29.015Z,3.44
2018-12-20T04:42:29.003Z,3.42
2018-12-20T04:43:30.553Z,3.45
2018-12-20T04:44:29.230Z,3.53
2018-12-20T04:45:28.981Z,3.51
2018-12-20T04:46:29.517Z,3.47
2018-12-20T04:47:29.169Z,3.47
2018-12-20T04:48:28.957Z,3.51
2018-12-20T04:49:29.443Z,3.59
2018-12-20T04:50:28.975Z,3.56
2018-12-20T04:51:29.128Z,3.56
2018-12-20T04:52:29.208Z,3.65
2018-12-20T04:53:29.973Z,3.48
2018-12-20T04:54:29.055Z,3.59
2018-12-20T04:55:29.070Z,3.53
2018-12-20T04:56:28.943Z,3.53
2018-12-20T04:57:29.119Z,3.53
2018-12-20T04:58:28.877Z,3.53
2018-12-20T04:59:29.144Z,3.47
2018-12-20T05:00:28.846Z,3.50
2018-12-20T05:01:29.249Z,3.47
2018-12-20T05:02:28.876Z,3.55
2018-12-20T05:03:28.976Z,3.48
2018-12-20T05:04:30.752Z,3.56
2018-12-20T05:05:28.791Z,3.58
2018-12-20T05:06:28.791Z,3.58
2018-12-20T05:07:29.465Z,3.59
2018-12-20T05:08:28.818Z,3.65
2018-12-20T05:09:28.766Z,3.60
2018-12-20T05:10:29.035Z,3.53
2018-12-20T05:11:28.922Z,3.56
2018-12-20T05:12:28.859Z,3.62
2018-12-20T05:13:29.028Z,3.62
2018-12-20T05:14:28.686Z,3.56
2018-12-20T05:15:28.713Z,3.59
2018-12-20T05:16:28.899Z,3.59
2018-12-20T05:17:29.417Z,3.60
2018-12-20T05:18:29.092Z,3.53
2018-12-20T05:19:29.102Z,3.59
2018-12-20T05:20:28.885Z,3.56
2018-12-20T05:21:28.591Z,3.50
2018-12-20T05:22:31.131Z,3.42
2018-12-20T05:23:28.737Z,3.47
2018-12-20T05:24:29.201Z,3.50
2018-12-20T05:25:30.709Z,3.47
2018-12-20T05:26:28.518Z,3.47
2018-12-20T05:27:28.564Z,3.50
2018-12-20T05:28:28.915Z,3.55
2018-12-20T05:29:28.641Z,3.62
2018-12-20T05:30:28.488Z,3.55
2018-12-20T05:31:28.660Z,3.56
2018-12-20T05:32:29.395Z,3.62
2018-12-20T05:33:28.553Z,3.63
2018-12-20T05:34:28.539Z,3.59
2018-12-20T05:35:28.573Z,3.51
2018-12-20T05:36:28.570Z,3.55
2018-12-20T05:37:29.000Z,3.55
2018-12-20T05:38:28.712Z,3.62
2018-12-20T05:39:28.459Z,3.58
2018-12-20T05:40:28.415Z,3.59
2018-12-20T05:41:28.501Z,3.58
2018-12-20T05:42:28.395Z,3.62
2018-12-20T05:43:28.735Z,3.60
2018-12-20T05:44:28.343Z,3.56
2018-12-20T05:45:28.321Z,3.56
2018-12-20T05:46:28.528Z,3.59
2018-12-20T05:47:28.437Z,3.56
2018-12-20T05:48:29.431Z,3.59
2018-12-20T05:49:28.972Z,3.56
2018-12-20T05:50:28.781Z,3.58
2018-12-20T05:51:28.249Z,3.65
2018-12-20T05:52:28.308Z,3.59
2018-12-20T05:53:30.205Z,3.63
2018-12-20T05:54:28.908Z,3.68
2018-12-20T05:55:29.598Z,3.63
2018-12-20T05:56:28.196Z,3.74
2018-12-20T05:57:28.482Z,3.76
2018-12-20T05:58:28.591Z,3.68
2018-12-20T05:59:28.183Z,3.74
2018-12-20T06:00:28.156Z,3.73
2018-12-20T06:01:28.629Z,3.69
2018-12-20T06:02:28.138Z,3.69
2018-12-20T06:03:28.416Z,3.66
2018-12-20T06:04:28.133Z,3.65
2018-12-20T06:05:28.223Z,3.56
2018-12-20T06:06:28.229Z,3.74
2018-12-20T06:07:32.225Z,3.55
2018-12-20T06:08:28.072Z,3.68
2018-12-20T06:09:28.260Z,3.70
2018-12-20T06:10:28.187Z,3.69
2018-12-20T06:11:28.149Z,3.68
2018-12-20T06:12:28.120Z,3.66
2018-12-20T06:13:28.246Z,3.58
2018-12-20T06:14:29.792Z,3.70
2018-12-20T06:15:33.608Z,3.60
2018-12-20T06:16:27.983Z,3.65
2018-12-20T06:17:28.046Z,3.65
2018-12-20T06:18:28.087Z,3.68
2018-12-20T06:19:28.211Z,3.60
2018-12-20T06:20:30.484Z,3.69
2018-12-20T06:21:30.765Z,3.66
2018-12-20T06:22:28.744Z,3.63
2018-12-20T06:23:36.502Z,3.63
2018-12-20T06:24:29.811Z,3.60
2018-12-20T06:25:28.369Z,3.63
2018-12-20T06:26:27.893Z,3.62
2018-12-20T06:27:27.884Z,3.68
2018-12-20T06:28:27.886Z,3.69
2018-12-20T06:29:27.858Z,3.63
2018-12-20T06:30:28.296Z,3.74
2018-12-20T06:31:28.175Z,3.69
2018-12-20T06:32:27.822Z,3.70
2018-12-20T06:33:27.800Z,3.68
2018-12-20T06:34:27.802Z,3.73
2018-12-20T06:35:27.812Z,3.68
2018-12-20T06:36:27.998Z,3.70
2018-12-20T06:37:27.758Z,3.69
2018-12-20T06:38:28.412Z,3.60
2018-12-20T06:39:27.751Z,3.60
2018-12-20T06:40:27.740Z,3.68
2018-12-20T06:41:28.602Z,3.66
2018-12-20T06:42:27.700Z,3.66
2018-12-20T06:43:27.841Z,3.65
2018-12-20T06:44:28.131Z,3.66
2018-12-20T06:45:27.671Z,3.68
2018-12-20T06:46:27.679Z,3.70
2018-12-20T06:47:27.660Z,3.70
2018-12-20T06:48:27.639Z,3.74
2018-12-20T06:49:27.712Z,3.73
2018-12-20T06:50:27.908Z,3.76
2018-12-20T06:51:27.610Z,3.68
2018-12-20T06:52:27.819Z,3.74
2018-12-20T06:53:28.588Z,3.65
2018-12-20T06:54:27.725Z,3.68
2018-12-20T06:55:27.960Z,3.66
2018-12-20T06:56:27.592Z,3.65
2018-12-20T06:57:29.516Z,3.76
2018-12-20T06:58:27.669Z,3.69
2018-12-20T06:59:27.528Z,3.68
2018-12-20T07:00:27.637Z,3.63
2018-12-20T07:01:27.768Z,3.58
2018-12-20T07:02:29.011Z,3.53
2018-12-20T07:03:27.498Z,3.53
2018-12-20T07:04:27.469Z,3.48
2018-12-20T07:05:27.544Z,3.45
2018-12-20T07:06:27.923Z,3.41
2018-12-20T07:07:28.108Z,3.44
2018-12-20T07:08:27.538Z,3.41
2018-12-20T07:09:27.423Z,3.47
2018-12-20T07:10:27.822Z,3.44
2018-12-20T07:11:35.054Z,3.47
2018-12-20T07:12:27.376Z,3.51
2018-12-20T07:13:27.409Z,3.47
2018-12-20T07:14:27.782Z,3.44
2018-12-20T07:15:27.798Z,3.44
2018-12-20T07:16:29.456Z,3.50
2018-12-20T07:17:27.686Z,3.50
2018-12-20T07:18:27.312Z,3.50
2018-12-20T07:19:27.323Z,3.53
2018-12-20T07:20:27.486Z,3.51
2018-12-20T07:21:27.302Z,3.50
2018-12-20T07:22:27.282Z,3.48
2018-12-20T07:23:28.812Z,3.51
2018-12-20T07:24:27.294Z,3.50
2018-12-20T07:25:28.430Z,3.42
2018-12-20T07:26:27.554Z,3.42
2018-12-20T07:27:27.253Z,3.44
2018-12-20T07:28:27.213Z,3.47
2018-12-20T07:29:27.239Z,3.45
2018-12-20T07:30:27.635Z,3.50
2018-12-20T07:31:27.187Z,3.44
2018-12-20T07:32:27.170Z,3.51
2018-12-20T07:33:27.168Z,3.47
2018-12-20T07:34:27.155Z,3.50
2018-12-20T07:35:27.129Z,3.48
2018-12-20T07:36:29.991Z,3.51
2018-12-20T07:37:27.118Z,3.56
2018-12-20T07:38:27.100Z,3.44
2018-12-20T07:39:27.133Z,3.48
2018-12-20T07:40:27.084Z,3.47
2018-12-20T07:41:27.066Z,3.45
2018-12-20T07:42:27.267Z,3.48
2018-12-20T07:43:27.106Z,3.47
2018-12-20T07:44:31.836Z,3.53
2018-12-20T07:45:27.030Z,3.56
2018-12-20T07:46:27.010Z,3.53
2018-12-20T07:47:27.086Z,3.58
2018-12-20T07:48:32.115Z,3.53
2018-12-20T07:49:28.201Z,3.58
2018-12-20T07:50:26.976Z,3.56
2018-12-20T07:51:26.962Z,3.55
2018-12-20T07:52:26.948Z,3.58
2018-12-20T07:53:26.941Z,3.58
2018-12-20T07:54:26.931Z,3.63
2018-12-20T07:55:27.114Z,3.63
2018-12-20T07:56:26.917Z,3.65
2018-12-20T07:57:26.900Z,3.55
2018-12-20T07:58:27.107Z,3.58
2018-12-20T07:59:26.888Z,3.59
2018-12-20T08:00:26.957Z,3.63
2018-12-20T08:01:27.053Z,3.73
2018-12-20T08:02:27.091Z,3.69
2018-12-20T08:03:26.882Z,3.70
2018-12-20T08:04:27.279Z,3.70
2018-12-20T08:05:28.430Z,3.66
2018-12-20T08:06:26.851Z,3.69
2018-12-20T08:07:26.793Z,3.76
2018-12-20T08:08:26.833Z,3.77
2018-12-20T08:09:26.942Z,3.83
2018-12-20T08:10:28.972Z,3.74
2018-12-20T08:11:27.245Z,3.83
2018-12-20T08:12:27.036Z,3.81
2018-12-20T08:13:27.642Z,3.76
2018-12-20T08:14:26.996Z,3.83
2018-12-20T08:15:26.785Z,3.76
2018-12-20T08:16:27.197Z,3.78
2018-12-20T08:17:26.804Z,3.78
2018-12-20T08:18:26.674Z,3.87
2018-12-20T08:19:26.814Z,3.87
2018-12-20T08:20:26.928Z,3.95
2018-12-20T08:21:27.149Z,3.94
2018-12-20T08:22:27.613Z,3.83
2018-12-20T08:23:26.872Z,3.86
2018-12-20T08:24:27.171Z,3.96
2018-12-20T08:25:26.615Z,3.95
2018-12-20T08:26:28.354Z,3.95
2018-12-20T08:27:26.570Z,4.02
2018-12-20T08:28:27.050Z,3.99
2018-12-20T08:29:27.756Z,4.02
2018-12-20T08:30:26.544Z,4.05
2018-12-20T08:31:26.542Z,4.19
2018-12-20T08:32:26.550Z,4.13
2018-12-20T08:33:26.509Z,4.13
2018-12-20T08:34:26.788Z,4.16
2018-12-20T08:35:26.513Z,4.12
2018-12-20T08:36:26.562Z,4.10
2018-12-20T08:37:26.517Z,4.14
2018-12-20T08:38:26.442Z,4.13
2018-12-20T08:39:26.932Z,4.16
2018-12-20T08:40:26.509Z,4.26
2018-12-20T08:41:26.567Z,4.35
2018-12-20T08:42:26.415Z,4.34
2018-12-20T08:43:26.480Z,4.34
2018-12-20T08:44:26.446Z,4.44
2018-12-20T08:45:26.542Z,4.49
2018-12-20T08:46:26.473Z,4.50
2018-12-20T08:47:28.895Z,4.44
2018-12-20T08:48:26.528Z,4.41
2018-12-20T08:49:26.790Z,4.49
2018-12-20T08:50:26.320Z,4.44
2018-12-20T08:51:26.576Z,4.52
2018-12-20T08:52:26.333Z,4.38
2018-12-20T08:53:26.385Z,4.44
2018-12-20T08:54:26.269Z,4.41
2018-12-20T08:55:26.258Z,4.31
2018-12-20T08:56:26.251Z,4.41
2018-12-20T08:57:26.879Z,4.37
2018-12-20T08:58:26.234Z,4.40
2018-12-20T08:59:26.385Z,4.37
2018-12-20T09:00:26.225Z,4.31
2018-12-20T09:01:26.217Z,4.49
2018-12-20T09:02:26.204Z,4.50
2018-12-20T09:03:26.464Z,4.44
2018-12-20T09:04:26.158Z,4.44
2018-12-20T09:05:26.167Z,4.45
2018-12-20T09:06:26.573Z,4.59
2018-12-20T09:07:26.132Z,4.58
2018-12-20T09:08:28.417Z,4.58
2018-12-20T09:09:26.458Z,4.70
2018-12-20T09:10:26.199Z,4.71
2018-12-20T09:11:26.466Z,4.75
2018-12-20T09:12:26.093Z,4.73
2018-12-20T09:13:26.071Z,4.70
2018-12-20T09:14:26.066Z,4.55
2018-12-20T09:15:27.392Z,4.55
2018-12-20T09:16:26.029Z,4.56
2018-12-20T09:17:26.039Z,4.59
2018-12-20T09:18:26.082Z,4.59
2018-12-20T09:19:26.352Z,4.59
2018-12-20T09:20:32.702Z,4.70
2018-12-20T09:21:29.171Z,4.67
2018-12-20T09:22:26.084Z,4.67
2018-12-20T09:23:25.957Z,4.75
2018-12-20T09:24:25.959Z,4.73
2018-12-20T09:25:26.161Z,4.70
2018-12-20T09:26:25.937Z,4.67
2018-12-20T09:27:26.426Z,4.68
2018-12-20T09:28:25.899Z,4.75
2018-12-20T09:29:28.014Z,4.77
2018-12-20T09:30:30.502Z,4.80
2018-12-20T09:31:26.872Z,4.80
2018-12-20T09:32:25.862Z,4.78
2018-12-20T09:33:26.009Z,4.75
2018-12-20T09:34:26.566Z,4.77
2018-12-20T09:35:26.845Z,4.63
2018-12-20T09:36:25.934Z,4.62
2018-12-20T09:37:25.813Z,4.78
2018-12-20T09:38:25.983Z,4.74
2018-12-20T09:39:25.773Z,4.74
2018-12-20T09:40:25.823Z,4.67
2018-12-20T09:41:25.756Z,4.70
2018-12-20T09:42:26.178Z,4.75
2018-12-20T09:43:25.737Z,4.58
2018-12-20T09:44:25.830Z,4.55
2018-12-20T09:45:25.863Z,4.75
2018-12-20T09:46:25.729Z,4.71
2018-12-20T09:47:25.722Z,4.68
2018-12-20T09:48:26.218Z,4.70
2018-12-20T09:49:25.669Z,4.80
2018-12-20T09:50:25.655Z,4.70
2018-12-20T09:51:26.243Z,4.67
2018-12-20T09:52:25.636Z,4.80
2018-12-20T09:53:25.619Z,4.80
2018-12-20T09:54:26.815Z,4.84
2018-12-20T09:55:25.605Z,4.82
2018-12-20T09:56:25.693Z,4.80
2018-12-20T09:57:25.586Z,4.84
2018-12-20T09:58:25.578Z,4.89
2018-12-20T09:59:25.639Z,4.87
2018-12-20T10:00:25.776Z,4.87
2018-12-20T10:01:25.548Z,4.87
2018-12-20T10:02:25.558Z,4.99
2018-12-20T10:03:25.530Z,4.94
2018-12-20T10:04:25.524Z,4.99
2018-12-20T10:05:25.503Z,4.97
2018-12-20T10:06:25.703Z,4.84
2018-12-20T10:07:25.478Z,5.02
2018-12-20T10:08:28.436Z,5.07
2018-12-20T10:09:25.460Z,5.00
2018-12-20T10:10:25.897Z,4.90
2018-12-20T10:11:26.521Z,4.89
2018-12-20T10:12:25.752Z,4.93
2018-12-20T10:13:27.367Z,4.86
2018-12-20T10:14:27.996Z,4.89
2018-12-20T10:15:25.693Z,4.99
2018-12-20T10:16:25.510Z,5.12
2018-12-20T10:17:25.565Z,5.04
2018-12-20T10:18:25.383Z,5.04
2018-12-20T10:19:25.358Z,5.00
2018-12-20T10:20:25.749Z,5.04
2018-12-20T10:21:25.327Z,5.11
2018-12-20T10:22:26.290Z,5.23
2018-12-20T10:23:25.319Z,5.26
2018-12-20T10:24:25.291Z,5.28
2018-12-20T10:25:25.291Z,5.46
2018-12-20T10:26:25.552Z,5.50
2018-12-20T10:27:31.360Z,5.48
2018-12-20T10:28:26.242Z,5.41
2018-12-20T10:29:25.257Z,5.39
2018-12-20T10:30:25.231Z,5.48
2018-12-20T10:31:25.244Z,5.50
2018-12-20T10:32:25.506Z,5.47
2018-12-20T10:33:25.265Z,5.47
2018-12-20T10:34:25.183Z,5.56
2018-12-20T10:35:25.559Z,5.56
2018-12-20T10:36:25.790Z,5.59
2018-12-20T10:37:25.558Z,5.61
2018-12-20T10:38:25.329Z,5.73
2018-12-20T10:39:25.152Z,5.83
2018-12-20T10:40:25.137Z,5.83
2018-12-20T10:41:25.103Z,5.84
2018-12-20T10:42:25.907Z,5.79
2018-12-20T10:43:25.091Z,5.87
2018-12-20T10:44:25.302Z,5.83
2018-12-20T10:45:25.335Z,5.72
2018-12-20T10:46:25.412Z,5.66
2018-12-20T10:47:29.233Z,5.62
2018-12-20T10:48:25.084Z,5.59
2018-12-20T10:49:25.027Z,5.56
2018-12-20T10:50:25.285Z,5.59
2018-12-20T10:51:24.994Z,5.71
2018-12-20T10:52:25.140Z,5.62
2018-12-20T10:53:24.975Z,5.62
2018-12-20T10:54:24.979Z,5.57
2018-12-20T10:55:25.177Z,5.62
2018-12-20T10:56:24.947Z,5.57
2018-12-20T10:57:24.926Z,5.68
2018-12-20T10:58:24.915Z,5.79
2018-12-20T10:59:24.914Z,5.83
2018-12-20T11:00:24.898Z,5.99
2018-12-20T11:01:25.109Z,6.02
2018-12-20T11:02:25.226Z,6.08
2018-12-20T11:03:25.019Z,6.04
2018-12-20T11:04:25.761Z,6.02
2018-12-20T11:05:24.959Z,6.19
2018-12-20T11:06:24.840Z,6.19
2018-12-20T11:07:25.410Z,6.17
2018-12-20T11:08:24.846Z,6.20
2018-12-20T11:09:24.888Z,6.35
2018-12-20T11:10:24.853Z,6.28
2018-12-20T11:11:24.835Z,6.31
2018-12-20T11:12:24.857Z,6.30
2018-12-20T11:13:25.131Z,6.01
2018-12-20T11:14:24.843Z,5.98
2018-12-20T11:15:26.935Z,5.91
2018-12-20T11:16:25.222Z,5.94
2018-12-20T11:17:25.837Z,5.97
2018-12-20T11:18:24.988Z,5.87
2018-12-20T11:19:25.239Z,5.87
2018-12-20T11:20:25.083Z,5.93
2018-12-20T11:21:25.206Z,5.84
2018-12-20T11:22:24.874Z,5.82
2018-12-20T11:23:24.824Z,5.99
2018-12-20T11:24:24.633Z,6.08
2018-12-20T11:25:24.638Z,6.07
2018-12-20T11:26:24.644Z,6.11
2018-12-20T11:27:25.057Z,6.02
2018-12-20T11:28:24.591Z,5.97
2018-12-20T11:29:24.573Z,5.87
2018-12-20T11:30:24.588Z,5.87
2018-12-20T11:31:24.865Z,5.82
2018-12-20T11:32:24.576Z,5.87
2018-12-20T11:33:25.037Z,6.01
2018-12-20T11:34:24.532Z,6.04
2018-12-20T11:35:24.510Z,5.98
2018-12-20T11:36:24.521Z,5.99
2018-12-20T11:37:24.513Z,5.89
2018-12-20T11:38:24.474Z,5.76
2018-12-20T11:39:25.066Z,5.76
2018-12-20T11:40:24.454Z,5.66
2018-12-20T11:41:24.474Z,5.61
2018-12-20T11:42:24.442Z,5.68
2018-12-20T11:43:24.424Z,5.56
2018-12-20T11:44:24.409Z,5.46
2018-12-20T11:45:24.615Z,5.35
2018-12-20T11:46:24.391Z,5.26
2018-12-20T11:47:25.402Z,5.30
2018-12-20T11:48:25.242Z,5.28
2018-12-20T11:49:25.398Z,5.32
2018-12-20T11:50:24.535Z,5.20
2018-12-20T11:51:24.331Z,5.21
2018-12-20T11:52:24.343Z,5.33
2018-12-20T11:53:24.336Z,5.26
2018-12-20T11:54:24.345Z,5.28
2018-12-20T11:55:26.960Z,5.25
2018-12-20T11:56:24.369Z,5.32
2018-12-20T11:57:24.271Z,5.46
2018-12-20T11:58:24.480Z,5.38
2018-12-20T11:59:24.255Z,5.48
2018-12-20T12:00:24.750Z,5.57
2018-12-20T12:01:24.594Z,5.59
2018-12-20T12:02:24.805Z,5.72
2018-12-20T12:03:24.809Z,5.66
2018-12-20T12:04:24.754Z,5.56
2018-12-20T12:05:24.397Z,5.64
2018-12-20T12:06:24.444Z,5.64
2018-12-20T12:07:26.129Z,5.56
2018-12-20T12:08:24.272Z,5.57
2018-12-20T12:09:24.581Z,5.59
2018-12-20T12:10:24.142Z,5.62
2018-12-20T12:11:24.154Z,5.64
2018-12-20T12:12:24.098Z,5.59
2018-12-20T12:13:24.645Z,5.59
2018-12-20T12:14:24.079Z,5.66
2018-12-20T12:15:24.101Z,5.59
2018-12-20T12:16:24.075Z,5.56
2018-12-20T12:17:24.048Z,5.62
2018-12-20T12:18:24.049Z,5.62
2018-12-20T12:19:24.698Z,5.75
2018-12-20T12:20:24.018Z,5.66
2018-12-20T12:21:24.051Z,5.66
2018-12-20T12:22:23.999Z,5.73
2018-12-20T12:23:23.980Z,5.73
2018-12-20T12:24:23.968Z,5.72
2018-12-20T12:25:24.136Z,5.71
2018-12-20T12:26:24.056Z,5.69
2018-12-20T12:27:23.948Z,5.80
2018-12-20T12:28:24.025Z,5.72
2018-12-20T12:29:23.923Z,5.71
2018-12-20T12:30:25.405Z,5.72
2018-12-20T12:31:24.472Z,5.68
2018-12-20T12:32:23.886Z,5.84
2018-12-20T12:33:23.880Z,5.84
2018-12-20T12:34:23.894Z,5.89
2018-12-20T12:35:23.865Z,5.75
2018-12-20T12:36:23.838Z,5.84
2018-12-20T12:37:28.955Z,5.71
2018-12-20T12:38:24.077Z,5.90
2018-12-20T12:39:24.043Z,5.86
2018-12-20T12:40:24.215Z,5.84
2018-12-20T12:41:25.845Z,5.89
2018-12-20T12:42:24.154Z,5.91
2018-12-20T12:43:23.776Z,6.04
2018-12-20T12:44:23.838Z,5.94
2018-12-20T12:45:24.169Z,6.04
2018-12-20T12:46:23.750Z,5.98
2018-12-20T12:47:23.718Z,5.94
2018-12-20T12:48:24.070Z,5.94
2018-12-20T12:49:24.170Z,5.84
2018-12-20T12:50:23.740Z,5.86
2018-12-20T12:51:24.670Z,5.84
2018-12-20T12:52:26.785Z,5.89
2018-12-20T12:53:23.658Z,5.80
2018-12-20T12:54:24.008Z,5.71
2018-12-20T12:55:24.002Z,5.66
2018-12-20T12:56:23.723Z,5.68
2018-12-20T12:57:23.605Z,5.71
2018-12-20T12:58:23.602Z,5.69
2018-12-20T12:59:23.584Z,5.68
2018-12-20T13:00:23.802Z,5.65
2018-12-20T13:01:23.570Z,5.71
2018-12-20T13:02:23.683Z,5.69
2018-12-20T13:03:23.552Z,5.66
2018-12-20T13:04:23.643Z,5.75
2018-12-20T13:05:23.524Z,5.72
2018-12-20T13:06:23.820Z,5.69
2018-12-20T13:07:23.517Z,5.72
2018-12-20T13:08:23.491Z,5.83
2018-12-20T13:09:23.483Z,5.84
2018-12-20T13:10:23.470Z,5.89
2018-12-20T13:11:23.456Z,5.87
2018-12-20T13:12:26.276Z,5.84
2018-12-20T13:13:23.666Z,5.89
2018-12-20T13:14:23.874Z,5.90
2018-12-20T13:15:23.477Z,6.04
2018-12-20T13:16:23.401Z,6.09
2018-12-20T13:17:23.448Z,6.08
2018-12-20T13:18:23.566Z,6.16